createdAt,value
2023-05-02T00:00:51.150Z,100683.72
2023-05-02T00:03:17.938Z,100686.72
2023-05-02T00:05:44.714Z,100689.50
2023-05-02T00:08:11.666Z,100683.53
2023-05-02T00:10:38.378Z,100691.78
2023-05-02T00:13:05.074Z,100689.81
2023-05-02T00:15:31.822Z,100694.56
2023-05-02T00:17:58.434Z,100683.63
2023-05-02T00:20:25.313Z,100692.59
2023-05-02T00:22:51.961Z,100697.84
2023-05-02T00:25:18.632Z,100693.13
2023-05-02T00:27:45.470Z,100694.13
2023-05-02T00:30:12.607Z,100693.31
2023-05-02T00:32:39.280Z,100691.56
2023-05-02T00:35:06.896Z,100696.41
2023-05-02T00:37:33.619Z,100702.59
2023-05-02T00:40:00.594Z,100707.13
2023-05-02T00:42:27.481Z,100711.06
2023-05-02T00:44:54.066Z,100703.34
2023-05-02T00:47:20.808Z,100713.13
2023-05-02T00:49:47.377Z,100724.53
2023-05-02T00:52:14.019Z,100718.25
2023-05-02T00:54:40.794Z,100723.00
2023-05-02T00:57:07.505Z,100730.22
2023-05-02T00:59:36.880Z,100726.91
2023-05-02T01:02:43.381Z,100731.34
2023-05-02T01:05:13.086Z,100740.91
2023-05-02T01:07:59.753Z,100738.97
2023-05-02T01:10:38.184Z,100737.84
2023-05-02T01:13:28.193Z,100738.22
2023-05-02T01:15:58.099Z,100731.03
2023-05-02T01:18:28.218Z,100739.66
2023-05-02T01:21:01.332Z,100734.44
2023-05-02T01:23:46.476Z,100736.16
2023-05-02T01:26:21.614Z,100734.00
2023-05-02T01:29:01.826Z,100724.84
2023-05-02T01:31:49.459Z,100725.78
2023-05-02T01:34:18.955Z,100735.75
2023-05-02T01:36:48.829Z,100738.63
2023-05-02T01:39:20.658Z,100738.41
2023-05-02T01:41:50.623Z,100745.63
2023-05-02T01:44:20.088Z,100737.59
2023-05-02T01:46:48.662Z,100738.22
2023-05-02T01:49:15.384Z,100734.69
2023-05-02T01:51:48.001Z,100739.41
2023-05-02T01:54:17.208Z,100734.47
2023-05-02T01:56:44.951Z,100739.53
2023-05-02T01:59:15.571Z,100741.25
2023-05-02T02:01:43.911Z,100742.38
2023-05-02T02:04:13.935Z,100743.50
2023-05-02T02:06:44.559Z,100747.41
2023-05-02T02:09:11.340Z,100744.09
2023-05-02T02:11:46.127Z,100745.25
2023-05-02T02:14:18.974Z,100742.47
2023-05-02T02:16:46.411Z,100745.53
2023-05-02T02:19:15.483Z,100743.91
2023-05-02T02:21:48.230Z,100741.72
2023-05-02T02:24:18.037Z,100749.84
2023-05-02T02:26:44.817Z,100751.50
2023-05-02T02:29:11.792Z,100746.25
2023-05-02T02:31:38.568Z,100745.13
2023-05-02T02:34:05.793Z,100747.16
2023-05-02T02:37:01.871Z,100756.91
2023-05-02T02:39:40.451Z,100752.19
2023-05-02T02:42:36.074Z,100756.78
2023-05-02T02:45:20.736Z,100755.97
2023-05-02T02:48:22.812Z,100752.97
2023-05-02T02:51:12.039Z,100750.56
2023-05-02T02:54:05.862Z,100755.06
2023-05-02T02:56:40.452Z,100757.53
2023-05-02T02:59:14.561Z,100753.13
2023-05-02T03:01:44.066Z,100760.41
2023-05-02T03:04:13.548Z,100757.06
2023-05-02T03:06:40.460Z,100757.31
2023-05-02T03:09:14.559Z,100760.13
2023-05-02T03:11:41.260Z,100763.72
2023-05-02T03:14:07.957Z,100763.69
2023-05-02T03:16:41.650Z,100771.53
2023-05-02T03:19:08.532Z,100771.81
2023-05-02T03:21:35.475Z,100774.84
2023-05-02T03:24:04.430Z,100781.09
2023-05-02T03:26:31.283Z,100788.81
2023-05-02T03:28:57.936Z,100786.63
2023-05-02T03:31:26.397Z,100791.94
2023-05-02T03:33:53.566Z,100792.78
2023-05-02T03:36:20.181Z,100795.56
2023-05-02T03:38:46.812Z,100796.69
2023-05-02T03:41:13.506Z,100798.34
2023-05-02T03:43:43.092Z,100803.59
2023-05-02T03:46:10.170Z,100803.03
2023-05-02T03:48:36.837Z,100798.25
2023-05-02T03:51:04.970Z,100804.34
2023-05-02T03:53:31.771Z,100808.16
2023-05-02T03:55:58.537Z,100813.66
2023-05-02T03:58:25.745Z,100806.09
2023-05-02T04:00:52.541Z,100813.31
2023-05-02T04:03:19.931Z,100807.16
2023-05-02T04:05:46.842Z,100801.22
2023-05-02T04:08:13.613Z,100816.16
2023-05-02T04:10:40.397Z,100812.78
2023-05-02T04:13:07.041Z,100804.34
2023-05-02T04:15:33.807Z,100805.41
2023-05-02T04:18:01.002Z,100806.66
2023-05-02T04:20:27.722Z,100808.88
2023-05-02T04:22:54.350Z,100818.44
2023-05-02T04:25:21.084Z,100820.53
2023-05-02T04:27:47.746Z,100820.13
2023-05-02T04:30:14.383Z,100815.44
2023-05-02T04:32:41.162Z,100821.41
2023-05-02T04:35:08.186Z,100821.84
2023-05-02T04:37:38.110Z,100819.13
2023-05-02T04:40:05.386Z,100824.19
2023-05-02T04:42:32.034Z,100823.34
2023-05-02T04:44:58.638Z,100821.88
2023-05-02T04:47:25.402Z,100830.41
2023-05-02T04:49:52.152Z,100824.03
2023-05-02T04:52:18.966Z,100821.91
2023-05-02T04:54:45.605Z,100820.25
2023-05-02T04:57:12.235Z,100816.97
2023-05-02T04:59:38.857Z,100826.56
2023-05-02T05:02:05.740Z,100825.09
2023-05-02T05:04:32.505Z,100824.34
2023-05-02T05:06:59.310Z,100823.38
2023-05-02T05:09:26.012Z,100822.63
2023-05-02T05:11:52.817Z,100822.00
2023-05-02T05:14:19.623Z,100824.03
2023-05-02T05:16:46.423Z,100831.66
2023-05-02T05:19:13.077Z,100829.00
2023-05-02T05:21:39.679Z,100836.59
2023-05-02T05:24:06.580Z,100842.50
2023-05-02T05:26:33.338Z,100838.97
2023-05-02T05:28:59.952Z,100833.44
2023-05-02T05:31:26.709Z,100833.22
2023-05-02T05:33:53.541Z,100838.03
2023-05-02T05:36:22.112Z,100844.75
2023-05-02T05:38:50.999Z,100843.28
2023-05-02T05:41:17.678Z,100837.50
2023-05-02T05:43:44.376Z,100840.16
2023-05-02T05:46:11.035Z,100845.75
2023-05-02T05:48:37.729Z,100833.53
2023-05-02T05:51:05.487Z,100845.53
2023-05-02T05:53:32.507Z,100847.25
2023-05-02T05:56:11.946Z,100847.75
2023-05-02T05:58:41.739Z,100858.22
2023-05-02T06:01:08.469Z,100846.72
2023-05-02T06:03:35.469Z,100841.81
2023-05-02T06:06:04.299Z,100841.97
2023-05-02T06:08:30.949Z,100846.03
2023-05-02T06:11:00.666Z,100840.94
2023-05-02T06:13:27.336Z,100856.19
2023-05-02T06:15:54.087Z,100847.78
2023-05-02T06:18:20.762Z,100849.41
2023-05-02T06:20:47.468Z,100848.66
2023-05-02T06:23:17.414Z,100851.13
2023-05-02T06:25:44.616Z,100850.63
2023-05-02T06:28:18.185Z,100851.13
2023-05-02T06:30:44.893Z,100853.88
2023-05-02T06:33:11.573Z,100852.50
2023-05-02T06:35:39.368Z,100853.88
2023-05-02T06:38:09.060Z,100851.56
2023-05-02T06:40:36.024Z,100848.94
2023-05-02T06:43:02.774Z,100850.34
2023-05-02T06:45:32.553Z,100854.34
2023-05-02T06:47:59.280Z,100853.69
2023-05-02T06:50:26.142Z,100858.38
2023-05-02T06:52:52.804Z,100850.72
2023-05-02T06:55:19.509Z,100849.56
2023-05-02T06:57:46.171Z,100861.59
2023-05-02T07:00:13.436Z,100858.56
2023-05-02T07:02:40.230Z,100857.56
2023-05-02T07:05:20.389Z,100858.31
2023-05-02T07:07:47.039Z,100847.44
2023-05-02T07:10:13.869Z,100857.97
2023-05-02T07:12:41.818Z,100858.81
2023-05-02T07:15:08.955Z,100858.09
2023-05-02T07:17:35.679Z,100860.22
2023-05-02T07:20:02.846Z,100860.09
2023-05-02T07:22:29.773Z,100861.19
2023-05-02T07:25:02.709Z,100858.06
2023-05-02T07:27:29.401Z,100865.69
2023-05-02T07:29:57.067Z,100862.34
2023-05-02T07:35:13.370Z,100853.72
2023-05-02T07:37:46.784Z,100863.38
2023-05-02T07:40:13.559Z,100855.25
2023-05-02T07:42:40.197Z,100858.38
2023-05-02T07:45:07.957Z,100864.19
2023-05-02T07:47:46.744Z,100865.91
2023-05-02T07:50:43.265Z,100877.69
2023-05-02T07:53:20.542Z,100859.50
2023-05-02T07:55:51.519Z,100874.81
2023-05-02T07:58:18.334Z,100863.47
2023-05-02T08:00:45.043Z,100864.53
2023-05-02T08:03:11.865Z,100874.22
2023-05-02T08:05:38.486Z,100867.13
2023-05-02T08:08:05.452Z,100874.84
2023-05-02T08:10:32.118Z,100872.41
2023-05-02T08:12:58.799Z,100878.69
2023-05-02T08:15:25.829Z,100870.66
2023-05-02T08:17:52.640Z,100880.91
2023-05-02T08:20:19.305Z,100872.91
2023-05-02T08:22:46.048Z,100874.66
2023-05-02T08:25:12.855Z,100876.19
2023-05-02T08:27:42.321Z,100876.81
2023-05-02T08:30:09.310Z,100875.94
2023-05-02T08:32:36.813Z,100868.06
2023-05-02T08:35:03.981Z,100861.97
2023-05-02T08:37:30.640Z,100873.44
2023-05-02T08:39:57.610Z,100875.94
2023-05-02T08:42:25.289Z,100871.16
2023-05-02T08:44:52.019Z,100865.16
2023-05-02T08:47:19.471Z,100864.34
2023-05-02T08:49:47.240Z,100865.63
2023-05-02T08:52:15.961Z,100864.22
2023-05-02T08:54:43.131Z,100861.00
2023-05-02T08:57:12.291Z,100860.56
2023-05-02T08:59:39.259Z,100863.69
2023-05-02T09:02:18.257Z,100868.44
2023-05-02T09:04:47.855Z,100858.84
2023-05-02T09:07:16.767Z,100859.94
2023-05-02T09:09:43.566Z,100868.44
2023-05-02T09:12:10.304Z,100862.63
2023-05-02T09:14:37.400Z,100854.19
2023-05-02T09:17:04.260Z,100857.97
2023-05-02T09:19:31.418Z,100855.50
2023-05-02T09:22:01.282Z,100869.47
2023-05-02T09:24:31.077Z,100861.81
2023-05-02T09:27:03.602Z,100861.88
2023-05-02T09:29:32.361Z,100854.91
2023-05-02T09:32:01.455Z,100856.34
2023-05-02T09:34:28.414Z,100851.13
2023-05-02T09:36:55.049Z,100851.34
2023-05-02T09:39:30.497Z,100856.25
2023-05-02T09:41:58.258Z,100854.72
2023-05-02T09:44:26.600Z,100851.44
2023-05-02T09:46:57.327Z,100854.97
2023-05-02T09:49:41.713Z,100853.72
2023-05-02T09:52:13.097Z,100852.13
2023-05-02T09:54:40.018Z,100859.41
2023-05-02T09:57:39.677Z,100850.31
2023-05-02T10:00:08.149Z,100843.16
2023-05-02T10:02:36.048Z,100841.94
2023-05-02T10:05:07.493Z,100841.94
2023-05-02T10:07:34.665Z,100839.56
2023-05-02T10:10:02.814Z,100835.69
2023-05-02T10:12:32.779Z,100839.53
2023-05-02T10:15:04.597Z,100832.50
2023-05-02T10:17:39.460Z,100835.38
2023-05-02T10:20:16.541Z,100832.75
2023-05-02T10:22:47.606Z,100836.56
2023-05-02T10:25:14.575Z,100832.19
2023-05-02T10:27:42.072Z,100819.75
2023-05-02T10:30:20.402Z,100823.50
2023-05-02T10:32:49.531Z,100826.28
2023-05-02T10:35:16.363Z,100825.66
2023-05-02T10:37:45.506Z,100817.25
2023-05-02T10:40:13.391Z,100824.28
2023-05-02T10:42:44.341Z,100817.53
2023-05-02T10:45:13.377Z,100816.72
2023-05-02T10:47:40.803Z,100804.97
2023-05-02T10:50:07.910Z,100807.06
2023-05-02T10:52:36.802Z,100819.63
2023-05-02T10:55:42.767Z,100811.06
2023-05-02T10:58:10.511Z,100821.63
2023-05-02T11:00:37.517Z,100812.78
2023-05-02T11:03:05.299Z,100810.91
2023-05-02T11:05:32.009Z,100806.63
2023-05-02T11:08:21.364Z,100803.47
2023-05-02T11:10:49.936Z,100806.16
2023-05-02T11:13:16.598Z,100806.56
2023-05-02T11:15:43.330Z,100806.56
2023-05-02T11:18:14.468Z,100812.34
2023-05-02T11:20:42.549Z,100807.34
2023-05-02T11:23:15.109Z,100799.78
2023-05-02T11:25:46.786Z,100805.38
2023-05-02T11:28:37.885Z,100801.16
2023-05-02T11:31:25.094Z,100802.13
2023-05-02T11:34:02.513Z,100798.16
2023-05-02T11:36:35.681Z,100796.97
2023-05-02T11:39:04.715Z,100793.75
2023-05-02T11:41:47.080Z,100787.88
2023-05-02T11:44:13.696Z,100791.03
2023-05-02T11:46:41.131Z,100785.03
2023-05-02T11:49:12.674Z,100780.03
2023-05-02T11:51:49.129Z,100777.50
2023-05-02T11:54:22.084Z,100773.88
2023-05-02T11:56:55.120Z,100777.91
2023-05-02T11:59:21.822Z,100777.25
2023-05-02T12:01:52.800Z,100779.00
2023-05-02T12:04:19.616Z,100774.63
2023-05-02T12:07:04.820Z,100768.63
2023-05-02T12:09:31.575Z,100777.22
2023-05-02T12:11:58.239Z,100773.38
2023-05-02T12:14:29.443Z,100765.53
2023-05-02T12:16:58.477Z,100776.81
2023-05-02T12:19:31.455Z,100772.03
2023-05-02T12:22:02.000Z,100766.00
2023-05-02T12:24:50.183Z,100765.50
2023-05-02T12:27:17.321Z,100754.22
2023-05-02T12:29:48.616Z,100759.31
2023-05-02T12:32:29.752Z,100764.06
2023-05-02T12:35:00.567Z,100756.75
2023-05-02T12:37:28.489Z,100756.34
2023-05-02T12:39:56.503Z,100756.75
2023-05-02T12:42:25.242Z,100750.34
2023-05-02T12:44:52.747Z,100762.09
2023-05-02T12:47:20.749Z,100752.69
2023-05-02T12:50:00.940Z,100748.13
2023-05-02T12:52:47.427Z,100753.81
2023-05-02T12:55:17.990Z,100754.81
2023-05-02T12:57:44.827Z,100748.31
2023-05-02T13:00:12.230Z,100745.00
2023-05-02T13:02:38.982Z,100754.16
2023-05-02T13:05:16.154Z,100743.72
2023-05-02T13:07:42.839Z,100739.31
2023-05-02T13:10:11.269Z,100742.84
2023-05-02T13:12:38.310Z,100747.34
2023-05-02T13:15:07.855Z,100745.56
2023-05-02T13:17:35.589Z,100734.28
